sensor_id;sensor_type;location;lat;lon;timestamp;P1;durP1;ratioP1;P2;durP2;ratioP2
17763;SDS011;22245;52.832;13.816;2022-09-17T00:01:51;3.30;;;0.90;;
17763;SDS011;22245;52.832;13.816;2022-09-17T00:05:14;1.48;;;0.63;;
17763;SDS011;22245;52.832;13.816;2022-09-17T00:08:36;1.73;;;0.85;;
17763;SDS011;22245;52.832;13.816;2022-09-17T00:11:59;1.65;;;0.82;;
17763;SDS011;22245;52.832;13.816;2022-09-17T00:15:21;1.48;;;0.70;;
17763;SDS011;22245;52.832;13.816;2022-09-17T00:18:42;1.20;;;0.90;;
17763;SDS011;22245;52.832;13.816;2022-09-17T00:22:05;1.10;;;0.82;;
17763;SDS011;22245;52.832;13.816;2022-09-17T00:25:26;1.88;;;0.90;;
17763;SDS011;22245;52.832;13.816;2022-09-17T00:28:48;1.20;;;0.80;;
17763;SDS011;22245;52.832;13.816;2022-09-17T00:32:11;1.38;;;1.00;;
17763;SDS011;22245;52.832;13.816;2022-09-17T00:35:32;4.57;;;1.63;;
17763;SDS011;22245;52.832;13.816;2022-09-17T00:38:56;2.53;;;0.90;;
17763;SDS011;22245;52.832;13.816;2022-09-17T00:42:20;0.98;;;0.88;;
17763;SDS011;22245;52.832;13.816;2022-09-17T00:45:42;3.65;;;0.93;;
17763;SDS011;22245;52.832;13.816;2022-09-17T00:49:04;2.13;;;1.10;;
17763;SDS011;22245;52.832;13.816;2022-09-17T00:52:31;2.13;;;1.27;;
17763;SDS011;22245;52.832;13.816;2022-09-17T00:55:59;3.80;;;1.45;;
17763;SDS011;22245;52.832;13.816;2022-09-17T00:59:23;3.33;;;1.52;;
17763;SDS011;22245;52.832;13.816;2022-09-17T01:02:45;2.13;;;1.20;;
17763;SDS011;22245;52.832;13.816;2022-09-17T01:06:09;2.53;;;0.95;;
17763;SDS011;22245;52.832;13.816;2022-09-17T01:09:41;1.92;;;1.27;;
17763;SDS011;22245;52.832;13.816;2022-09-17T01:13:15;1.88;;;1.20;;
17763;SDS011;22245;52.832;13.816;2022-09-17T01:16:47;3.92;;;1.08;;
17763;SDS011;22245;52.832;13.816;2022-09-17T01:20:25;2.70;;;1.27;;
17763;SDS011;22245;52.832;13.816;2022-09-17T01:31:56;1.63;;;1.10;;
17763;SDS011;22245;52.832;13.816;2022-09-17T01:35:26;3.22;;;1.40;;
17763;SDS011;22245;52.832;13.816;2022-09-17T01:38:53;2.53;;;1.20;;
17763;SDS011;22245;52.832;13.816;2022-09-17T01:42:24;2.15;;;1.20;;
17763;SDS011;22245;52.832;13.816;2022-09-17T01:45:55;2.33;;;1.25;;
17763;SDS011;22245;52.832;13.816;2022-09-17T01:49:23;4.00;;;1.40;;
17763;SDS011;22245;52.832;13.816;2022-09-17T01:52:46;3.75;;;1.30;;
17763;SDS011;22245;52.832;13.816;2022-09-17T01:56:14;3.72;;;1.15;;
17763;SDS011;22245;52.832;13.816;2022-09-17T01:59:39;2.65;;;1.45;;
17763;SDS011;22245;52.832;13.816;2022-09-17T02:03:07;3.58;;;1.60;;
17763;SDS011;22245;52.832;13.816;2022-09-17T02:06:36;6.05;;;2.30;;
17763;SDS011;22245;52.832;13.816;2022-09-17T02:10:03;5.63;;;2.20;;
17763;SDS011;22245;52.832;13.816;2022-09-17T02:13:29;5.88;;;2.20;;
17763;SDS011;22245;52.832;13.816;2022-09-17T02:16:55;7.78;;;2.67;;
17763;SDS011;22245;52.832;13.816;2022-09-17T02:20:25;5.85;;;2.72;;
17763;SDS011;22245;52.832;13.816;2022-09-17T02:23:59;6.78;;;3.80;;
17763;SDS011;22245;52.832;13.816;2022-09-17T02:27:30;6.57;;;3.08;;
17763;SDS011;22245;52.832;13.816;2022-09-17T02:30:58;8.10;;;3.17;;
17763;SDS011;22245;52.832;13.816;2022-09-17T02:34:20;8.82;;;3.22;;
17763;SDS011;22245;52.832;13.816;2022-09-17T02:37:44;6.45;;;2.88;;
17763;SDS011;22245;52.832;13.816;2022-09-17T02:41:09;11.25;;;3.83;;
17763;SDS011;22245;52.832;13.816;2022-09-17T02:44:37;9.10;;;3.88;;
17763;SDS011;22245;52.832;13.816;2022-09-17T02:48:13;9.02;;;4.10;;
17763;SDS011;22245;52.832;13.816;2022-09-17T02:51:49;7.82;;;3.60;;
17763;SDS011;22245;52.832;13.816;2022-09-17T02:55:17;8.40;;;3.75;;
17763;SDS011;22245;52.832;13.816;2022-09-17T02:58:45;11.63;;;4.43;;
17763;SDS011;22245;52.832;13.816;2022-09-17T03:02:15;9.63;;;4.10;;
17763;SDS011;22245;52.832;13.816;2022-09-17T03:05:40;11.15;;;3.75;;
17763;SDS011;22245;52.832;13.816;2022-09-17T03:09:03;9.23;;;3.90;;
17763;SDS011;22245;52.832;13.816;2022-09-17T03:12:24;8.98;;;3.90;;
17763;SDS011;22245;52.832;13.816;2022-09-17T03:15:47;9.00;;;3.88;;
17763;SDS011;22245;52.832;13.816;2022-09-17T03:19:09;7.97;;;3.83;;
17763;SDS011;22245;52.832;13.816;2022-09-17T03:22:30;8.45;;;3.47;;
17763;SDS011;22245;52.832;13.816;2022-09-17T03:25:52;8.93;;;4.18;;
17763;SDS011;22245;52.832;13.816;2022-09-17T03:29:14;10.00;;;4.05;;
17763;SDS011;22245;52.832;13.816;2022-09-17T03:32:37;12.02;;;4.15;;
17763;SDS011;22245;52.832;13.816;2022-09-17T03:35:58;8.43;;;4.35;;
17763;SDS011;22245;52.832;13.816;2022-09-17T03:39:20;8.85;;;4.20;;
17763;SDS011;22245;52.832;13.816;2022-09-17T03:42:41;9.23;;;4.20;;
17763;SDS011;22245;52.832;13.816;2022-09-17T03:46:03;7.88;;;3.88;;
17763;SDS011;22245;52.832;13.816;2022-09-17T03:49:26;8.88;;;3.67;;
17763;SDS011;22245;52.832;13.816;2022-09-17T03:52:48;7.93;;;3.97;;
17763;SDS011;22245;52.832;13.816;2022-09-17T03:56:09;8.27;;;3.72;;
17763;SDS011;22245;52.832;13.816;2022-09-17T03:59:30;8.32;;;3.60;;
17763;SDS011;22245;52.832;13.816;2022-09-17T04:02:51;10.35;;;4.05;;
17763;SDS011;22245;52.832;13.816;2022-09-17T04:06:15;10.52;;;4.25;;
17763;SDS011;22245;52.832;13.816;2022-09-17T04:09:36;10.90;;;3.83;;
17763;SDS011;22245;52.832;13.816;2022-09-17T04:12:58;6.75;;;3.60;;
17763;SDS011;22245;52.832;13.816;2022-09-17T04:16:19;8.93;;;3.75;;
17763;SDS011;22245;52.832;13.816;2022-09-17T04:19:41;9.25;;;3.72;;
17763;SDS011;22245;52.832;13.816;2022-09-17T04:23:03;8.45;;;4.20;;
17763;SDS011;22245;52.832;13.816;2022-09-17T04:26:25;8.85;;;4.00;;
17763;SDS011;22245;52.832;13.816;2022-09-17T04:29:47;11.02;;;3.97;;
17763;SDS011;22245;52.832;13.816;2022-09-17T04:33:08;8.93;;;4.30;;
17763;SDS011;22245;52.832;13.816;2022-09-17T04:36:30;8.40;;;4.30;;
17763;SDS011;22245;52.832;13.816;2022-09-17T04:39:53;9.88;;;4.45;;
17763;SDS011;22245;52.832;13.816;2022-09-17T04:43:15;12.98;;;4.80;;
17763;SDS011;22245;52.832;13.816;2022-09-17T04:46:37;9.32;;;4.00;;
17763;SDS011;22245;52.832;13.816;2022-09-17T04:49:59;15.05;;;4.68;;
17763;SDS011;22245;52.832;13.816;2022-09-17T04:53:21;10.60;;;4.45;;
17763;SDS011;22245;52.832;13.816;2022-09-17T04:56:44;12.95;;;3.85;;
17763;SDS011;22245;52.832;13.816;2022-09-17T05:00:05;16.13;;;4.85;;
17763;SDS011;22245;52.832;13.816;2022-09-17T05:03:28;8.25;;;3.80;;
17763;SDS011;22245;52.832;13.816;2022-09-17T05:06:50;10.30;;;3.60;;
17763;SDS011;22245;52.832;13.816;2022-09-17T05:10:12;13.65;;;3.90;;
17763;SDS011;22245;52.832;13.816;2022-09-17T05:13:37;10.30;;;3.90;;
17763;SDS011;22245;52.832;13.816;2022-09-17T05:16:58;8.40;;;4.07;;
17763;SDS011;22245;52.832;13.816;2022-09-17T05:20:20;10.95;;;4.05;;
17763;SDS011;22245;52.832;13.816;2022-09-17T05:23:42;8.93;;;3.42;;
17763;SDS011;22245;52.832;13.816;2022-09-17T05:27:03;10.95;;;4.18;;
17763;SDS011;22245;52.832;13.816;2022-09-17T05:30:26;9.93;;;4.00;;
17763;SDS011;22245;52.832;13.816;2022-09-17T05:33:48;12.30;;;4.07;;
17763;SDS011;22245;52.832;13.816;2022-09-17T05:37:10;16.15;;;4.32;;
17763;SDS011;22245;52.832;13.816;2022-09-17T05:40:33;7.13;;;3.88;;
17763;SDS011;22245;52.832;13.816;2022-09-17T05:43:55;8.65;;;3.42;;
17763;SDS011;22245;52.832;13.816;2022-09-17T05:47:17;12.35;;;3.70;;
17763;SDS011;22245;52.832;13.816;2022-09-17T05:50:38;10.38;;;3.88;;
17763;SDS011;22245;52.832;13.816;2022-09-17T05:54:01;10.55;;;4.13;;
17763;SDS011;22245;52.832;13.816;2022-09-17T05:57:22;12.07;;;3.60;;
17763;SDS011;22245;52.832;13.816;2022-09-17T06:00:44;11.25;;;3.33;;
17763;SDS011;22245;52.832;13.816;2022-09-17T06:04:09;7.07;;;3.08;;
17763;SDS011;22245;52.832;13.816;2022-09-17T06:07:30;8.70;;;3.03;;
17763;SDS011;22245;52.832;13.816;2022-09-17T06:10:52;9.18;;;2.83;;
17763;SDS011;22245;52.832;13.816;2022-09-17T06:14:20;10.70;;;3.58;;
17763;SDS011;22245;52.832;13.816;2022-09-17T06:17:41;11.68;;;3.50;;
17763;SDS011;22245;52.832;13.816;2022-09-17T06:21:04;9.20;;;2.90;;
17763;SDS011;22245;52.832;13.816;2022-09-17T06:24:26;10.73;;;3.15;;
17763;SDS011;22245;52.832;13.816;2022-09-17T06:27:48;17.42;;;3.67;;
17763;SDS011;22245;52.832;13.816;2022-09-17T06:31:10;13.98;;;3.80;;
17763;SDS011;22245;52.832;13.816;2022-09-17T06:34:32;10.82;;;3.40;;
17763;SDS011;22245;52.832;13.816;2022-09-17T06:37:55;18.55;;;3.80;;
17763;SDS011;22245;52.832;13.816;2022-09-17T06:41:17;12.90;;;3.17;;
17763;SDS011;22245;52.832;13.816;2022-09-17T06:44:38;14.88;;;3.25;;
17763;SDS011;22245;52.832;13.816;2022-09-17T06:48:02;15.98;;;3.88;;
17763;SDS011;22245;52.832;13.816;2022-09-17T06:51:23;15.93;;;3.78;;
17763;SDS011;22245;52.832;13.816;2022-09-17T06:54:47;14.77;;;3.80;;
17763;SDS011;22245;52.832;13.816;2022-09-17T06:58:08;11.68;;;3.20;;
17763;SDS011;22245;52.832;13.816;2022-09-17T07:01:30;12.32;;;4.07;;
17763;SDS011;22245;52.832;13.816;2022-09-17T07:04:52;16.58;;;4.20;;
17763;SDS011;22245;52.832;13.816;2022-09-17T07:08:14;11.77;;;3.40;;
17763;SDS011;22245;52.832;13.816;2022-09-17T07:11:37;15.68;;;3.67;;
17763;SDS011;22245;52.832;13.816;2022-09-17T07:14:58;9.43;;;3.20;;
17763;SDS011;22245;52.832;13.816;2022-09-17T07:18:19;9.77;;;2.60;;
17763;SDS011;22245;52.832;13.816;2022-09-17T07:21:41;9.27;;;2.78;;
17763;SDS011;22245;52.832;13.816;2022-09-17T07:25:02;10.68;;;2.58;;
17763;SDS011;22245;52.832;13.816;2022-09-17T07:28:26;7.97;;;2.60;;
17763;SDS011;22245;52.832;13.816;2022-09-17T07:31:48;8.90;;;2.33;;
17763;SDS011;22245;52.832;13.816;2022-09-17T07:35:10;13.88;;;2.80;;
17763;SDS011;22245;52.832;13.816;2022-09-17T07:38:32;12.48;;;3.53;;
17763;SDS011;22245;52.832;13.816;2022-09-17T07:41:54;13.20;;;3.33;;
17763;SDS011;22245;52.832;13.816;2022-09-17T07:45:17;17.40;;;3.42;;
17763;SDS011;22245;52.832;13.816;2022-09-17T07:48:38;14.18;;;3.38;;
17763;SDS011;22245;52.832;13.816;2022-09-17T07:51:59;13.68;;;3.58;;
17763;SDS011;22245;52.832;13.816;2022-09-17T07:55:25;13.82;;;3.67;;
17763;SDS011;22245;52.832;13.816;2022-09-17T07:58:47;16.58;;;3.55;;
17763;SDS011;22245;52.832;13.816;2022-09-17T08:02:11;19.55;;;4.88;;
17763;SDS011;22245;52.832;13.816;2022-09-17T08:05:33;17.02;;;4.50;;
17763;SDS011;22245;52.832;13.816;2022-09-17T08:08:55;13.80;;;3.75;;
17763;SDS011;22245;52.832;13.816;2022-09-17T08:12:17;19.45;;;4.13;;
17763;SDS011;22245;52.832;13.816;2022-09-17T08:15:38;15.80;;;3.70;;
17763;SDS011;22245;52.832;13.816;2022-09-17T08:19:01;15.48;;;4.35;;
17763;SDS011;22245;52.832;13.816;2022-09-17T08:22:22;15.52;;;4.07;;
17763;SDS011;22245;52.832;13.816;2022-09-17T08:25:43;14.02;;;3.60;;
17763;SDS011;22245;52.832;13.816;2022-09-17T08:29:11;13.48;;;3.58;;
17763;SDS011;22245;52.832;13.816;2022-09-17T08:32:33;18.73;;;5.07;;
17763;SDS011;22245;52.832;13.816;2022-09-17T08:35:55;11.57;;;3.40;;
17763;SDS011;22245;52.832;13.816;2022-09-17T08:39:18;18.05;;;3.70;;
17763;SDS011;22245;52.832;13.816;2022-09-17T08:42:40;14.55;;;3.35;;
17763;SDS011;22245;52.832;13.816;2022-09-17T08:46:13;16.02;;;3.30;;
17763;SDS011;22245;52.832;13.816;2022-09-17T08:49:35;13.55;;;2.72;;
17763;SDS011;22245;52.832;13.816;2022-09-17T08:56:49;14.02;;;3.45;;
17763;SDS011;22245;52.832;13.816;2022-09-17T09:00:24;16.65;;;4.03;;
17763;SDS011;22245;52.832;13.816;2022-09-17T09:04:04;14.27;;;3.10;;
17763;SDS011;22245;52.832;13.816;2022-09-17T09:08:04;21.42;;;3.10;;
17763;SDS011;22245;52.832;13.816;2022-09-17T09:11:32;13.27;;;3.05;;
17763;SDS011;22245;52.832;13.816;2022-09-17T09:14:57;10.88;;;2.88;;
17763;SDS011;22245;52.832;13.816;2022-09-17T09:18:22;15.65;;;2.90;;
17763;SDS011;22245;52.832;13.816;2022-09-17T09:21:47;10.88;;;2.78;;
17763;SDS011;22245;52.832;13.816;2022-09-17T09:25:20;12.18;;;2.28;;
17763;SDS011;22245;52.832;13.816;2022-09-17T09:28:49;14.10;;;2.92;;
17763;SDS011;22245;52.832;13.816;2022-09-17T09:32:30;15.52;;;2.45;;
17763;SDS011;22245;52.832;13.816;2022-09-17T09:36:05;16.95;;;3.28;;
17763;SDS011;22245;52.832;13.816;2022-09-17T09:39:28;12.73;;;2.50;;
17763;SDS011;22245;52.832;13.816;2022-09-17T09:43:06;13.82;;;2.42;;
17763;SDS011;22245;52.832;13.816;2022-09-17T09:46:42;17.45;;;3.13;;
17763;SDS011;22245;52.832;13.816;2022-09-17T09:50:19;12.70;;;3.15;;
17763;SDS011;22245;52.832;13.816;2022-09-17T09:54:12;12.00;;;2.47;;
17763;SDS011;22245;52.832;13.816;2022-09-17T09:57:44;14.32;;;2.63;;
17763;SDS011;22245;52.832;13.816;2022-09-17T10:01:10;12.27;;;1.98;;
17763;SDS011;22245;52.832;13.816;2022-09-17T10:04:34;13.23;;;2.75;;
17763;SDS011;22245;52.832;13.816;2022-09-17T10:07:57;12.20;;;2.40;;
17763;SDS011;22245;52.832;13.816;2022-09-17T10:11:19;9.88;;;2.40;;
17763;SDS011;22245;52.832;13.816;2022-09-17T10:14:43;12.18;;;2.20;;
17763;SDS011;22245;52.832;13.816;2022-09-17T10:18:15;11.00;;;2.67;;
17763;SDS011;22245;52.832;13.816;2022-09-17T10:21:38;18.45;;;3.40;;
17763;SDS011;22245;52.832;13.816;2022-09-17T10:25:03;8.68;;;2.33;;
17763;SDS011;22245;52.832;13.816;2022-09-17T10:28:34;10.10;;;2.55;;
17763;SDS011;22245;52.832;13.816;2022-09-17T10:32:12;10.32;;;2.42;;
17763;SDS011;22245;52.832;13.816;2022-09-17T10:35:35;10.60;;;2.25;;
17763;SDS011;22245;52.832;13.816;2022-09-17T10:38:56;4.65;;;1.80;;
17763;SDS011;22245;52.832;13.816;2022-09-17T10:42:23;8.65;;;2.15;;
17763;SDS011;22245;52.832;13.816;2022-09-17T10:45:44;12.60;;;2.15;;
17763;SDS011;22245;52.832;13.816;2022-09-17T10:49:19;9.13;;;1.85;;
17763;SDS011;22245;52.832;13.816;2022-09-17T10:52:55;9.25;;;2.63;;
17763;SDS011;22245;52.832;13.816;2022-09-17T10:56:19;11.60;;;2.38;;
17763;SDS011;22245;52.832;13.816;2022-09-17T10:59:53;11.02;;;2.53;;
17763;SDS011;22245;52.832;13.816;2022-09-17T11:03:39;10.63;;;2.10;;
17763;SDS011;22245;52.832;13.816;2022-09-17T11:07:15;12.40;;;2.17;;
17763;SDS011;22245;52.832;13.816;2022-09-17T11:10:52;8.50;;;2.30;;
17763;SDS011;22245;52.832;13.816;2022-09-17T11:14:25;8.27;;;1.98;;
17763;SDS011;22245;52.832;13.816;2022-09-17T11:22:01;12.63;;;2.30;;
17763;SDS011;22245;52.832;13.816;2022-09-17T11:25:37;10.02;;;2.67;;
17763;SDS011;22245;52.832;13.816;2022-09-17T11:29:08;14.30;;;2.20;;
17763;SDS011;22245;52.832;13.816;2022-09-17T11:32:53;13.68;;;2.55;;
17763;SDS011;22245;52.832;13.816;2022-09-17T11:36:35;10.20;;;2.10;;
17763;SDS011;22245;52.832;13.816;2022-09-17T11:40:05;12.23;;;2.17;;
17763;SDS011;22245;52.832;13.816;2022-09-17T11:43:38;10.25;;;1.88;;
17763;SDS011;22245;52.832;13.816;2022-09-17T11:47:04;7.25;;;1.65;;
17763;SDS011;22245;52.832;13.816;2022-09-17T11:50:30;10.70;;;1.88;;
17763;SDS011;22245;52.832;13.816;2022-09-17T11:53:58;8.38;;;1.92;;
17763;SDS011;22245;52.832;13.816;2022-09-17T11:57:28;13.10;;;1.83;;
17763;SDS011;22245;52.832;13.816;2022-09-17T12:00:54;11.15;;;1.80;;
17763;SDS011;22245;52.832;13.816;2022-09-17T12:04:32;10.77;;;1.67;;
17763;SDS011;22245;52.832;13.816;2022-09-17T12:08:03;7.18;;;1.52;;
17763;SDS011;22245;52.832;13.816;2022-09-17T12:11:35;10.18;;;2.47;;
17763;SDS011;22245;52.832;13.816;2022-09-17T12:15:05;10.25;;;2.20;;
17763;SDS011;22245;52.832;13.816;2022-09-17T12:18:39;8.13;;;1.80;;
17763;SDS011;22245;52.832;13.816;2022-09-17T12:22:20;9.43;;;1.85;;
17763;SDS011;22245;52.832;13.816;2022-09-17T12:25:45;8.68;;;2.30;;
17763;SDS011;22245;52.832;13.816;2022-09-17T12:29:20;11.82;;;2.45;;
17763;SDS011;22245;52.832;13.816;2022-09-17T12:36:41;6.43;;;1.67;;
17763;SDS011;22245;52.832;13.816;2022-09-17T12:40:20;8.73;;;1.35;;
17763;SDS011;22245;52.832;13.816;2022-09-17T12:43:52;8.05;;;1.85;;
17763;SDS011;22245;52.832;13.816;2022-09-17T12:47:45;7.05;;;1.58;;
17763;SDS011;22245;52.832;13.816;2022-09-17T12:51:27;5.47;;;1.45;;
17763;SDS011;22245;52.832;13.816;2022-09-17T12:55:22;4.13;;;1.20;;
17763;SDS011;22245;52.832;13.816;2022-09-17T12:59:03;3.22;;;1.10;;
17763;SDS011;22245;52.832;13.816;2022-09-17T13:02:29;3.47;;;1.00;;
17763;SDS011;22245;52.832;13.816;2022-09-17T13:10:19;5.18;;;1.10;;
17763;SDS011;22245;52.832;13.816;2022-09-17T13:14:04;5.28;;;0.80;;
17763;SDS011;22245;52.832;13.816;2022-09-17T13:17:35;4.05;;;0.98;;
17763;SDS011;22245;52.832;13.816;2022-09-17T13:21:11;3.88;;;1.10;;
17763;SDS011;22245;52.832;13.816;2022-09-17T13:24:38;3.88;;;0.98;;
17763;SDS011;22245;52.832;13.816;2022-09-17T13:28:06;4.43;;;1.02;;
17763;SDS011;22245;52.832;13.816;2022-09-17T13:31:45;5.10;;;1.23;;
17763;SDS011;22245;52.832;13.816;2022-09-17T13:39:30;5.15;;;1.25;;
17763;SDS011;22245;52.832;13.816;2022-09-17T13:43:04;4.15;;;1.42;;
17763;SDS011;22245;52.832;13.816;2022-09-17T13:46:29;7.63;;;1.63;;
17763;SDS011;22245;52.832;13.816;2022-09-17T13:49:54;3.60;;;1.10;;
17763;SDS011;22245;52.832;13.816;2022-09-17T13:53:19;3.78;;;1.00;;
17763;SDS011;22245;52.832;13.816;2022-09-17T13:56:47;3.75;;;0.90;;
17763;SDS011;22245;52.832;13.816;2022-09-17T14:08:06;4.43;;;0.98;;
17763;SDS011;22245;52.832;13.816;2022-09-17T14:11:35;3.42;;;0.93;;
17763;SDS011;22245;52.832;13.816;2022-09-17T14:14:59;5.45;;;1.20;;
17763;SDS011;22245;52.832;13.816;2022-09-17T14:18:36;7.25;;;1.00;;
17763;SDS011;22245;52.832;13.816;2022-09-17T14:22:11;4.07;;;1.20;;
17763;SDS011;22245;52.832;13.816;2022-09-17T14:25:36;2.95;;;0.73;;
17763;SDS011;22245;52.832;13.816;2022-09-17T14:29:06;3.40;;;0.85;;
17763;SDS011;22245;52.832;13.816;2022-09-17T14:32:44;4.07;;;0.70;;
17763;SDS011;22245;52.832;13.816;2022-09-17T14:36:22;5.15;;;0.82;;
17763;SDS011;22245;52.832;13.816;2022-09-17T14:39:44;2.22;;;1.00;;
17763;SDS011;22245;52.832;13.816;2022-09-17T14:43:09;4.53;;;0.90;;
17763;SDS011;22245;52.832;13.816;2022-09-17T14:46:40;2.30;;;0.88;;
17763;SDS011;22245;52.832;13.816;2022-09-17T14:50:18;4.55;;;0.90;;
17763;SDS011;22245;52.832;13.816;2022-09-17T14:53:40;3.53;;;0.70;;
17763;SDS011;22245;52.832;13.816;2022-09-17T14:57:02;2.42;;;0.80;;
17763;SDS011;22245;52.832;13.816;2022-09-17T15:00:40;3.83;;;0.80;;
17763;SDS011;22245;52.832;13.816;2022-09-17T15:04:19;2.78;;;0.75;;
17763;SDS011;22245;52.832;13.816;2022-09-17T15:07:43;4.45;;;1.25;;
17763;SDS011;22245;52.832;13.816;2022-09-17T15:11:05;5.15;;;0.90;;
17763;SDS011;22245;52.832;13.816;2022-09-17T15:14:32;3.50;;;0.90;;
17763;SDS011;22245;52.832;13.816;2022-09-17T15:17:56;5.32;;;1.17;;
17763;SDS011;22245;52.832;13.816;2022-09-17T15:21:20;4.78;;;0.95;;
17763;SDS011;22245;52.832;13.816;2022-09-17T15:24:51;1.23;;;0.80;;
17763;SDS011;22245;52.832;13.816;2022-09-17T15:28:18;3.75;;;0.93;;
17763;SDS011;22245;52.832;13.816;2022-09-17T15:31:47;1.73;;;0.70;;
17763;SDS011;22245;52.832;13.816;2022-09-17T15:35:24;3.33;;;0.70;;
17763;SDS011;22245;52.832;13.816;2022-09-17T15:38:48;1.63;;;0.70;;
17763;SDS011;22245;52.832;13.816;2022-09-17T15:42:17;1.50;;;0.80;;
17763;SDS011;22245;52.832;13.816;2022-09-17T15:45:41;1.83;;;0.93;;
17763;SDS011;22245;52.832;13.816;2022-09-17T15:52:49;6.03;;;1.17;;
17763;SDS011;22245;52.832;13.816;2022-09-17T15:56:18;4.35;;;1.10;;
17763;SDS011;22245;52.832;13.816;2022-09-17T15:59:43;3.55;;;1.00;;
17763;SDS011;22245;52.832;13.816;2022-09-17T16:03:22;1.75;;;0.80;;
17763;SDS011;22245;52.832;13.816;2022-09-17T16:07:27;2.40;;;0.90;;
17763;SDS011;22245;52.832;13.816;2022-09-17T16:10:50;1.45;;;0.77;;
17763;SDS011;22245;52.832;13.816;2022-09-17T16:14:12;0.68;;;0.43;;
17763;SDS011;22245;52.832;13.816;2022-09-17T16:17:42;1.48;;;0.60;;
17763;SDS011;22245;52.832;13.816;2022-09-17T16:21:04;3.15;;;0.80;;
17763;SDS011;22245;52.832;13.816;2022-09-17T16:24:26;1.52;;;0.60;;
17763;SDS011;22245;52.832;13.816;2022-09-17T16:27:48;3.53;;;1.20;;
17763;SDS011;22245;52.832;13.816;2022-09-17T16:31:12;2.10;;;0.60;;
17763;SDS011;22245;52.832;13.816;2022-09-17T16:34:35;2.88;;;0.63;;
17763;SDS011;22245;52.832;13.816;2022-09-17T16:37:57;1.30;;;0.70;;
17763;SDS011;22245;52.832;13.816;2022-09-17T16:41:18;1.58;;;0.70;;
17763;SDS011;22245;52.832;13.816;2022-09-17T16:44:39;0.95;;;0.73;;
17763;SDS011;22245;52.832;13.816;2022-09-17T16:48:01;2.90;;;0.60;;
17763;SDS011;22245;52.832;13.816;2022-09-17T16:51:24;1.15;;;0.50;;
17763;SDS011;22245;52.832;13.816;2022-09-17T16:54:45;1.02;;;0.57;;
17763;SDS011;22245;52.832;13.816;2022-09-17T16:58:07;2.67;;;0.73;;
17763;SDS011;22245;52.832;13.816;2022-09-17T17:01:28;1.30;;;0.60;;
17763;SDS011;22245;52.832;13.816;2022-09-17T17:04:51;2.42;;;0.90;;
17763;SDS011;22245;52.832;13.816;2022-09-17T17:08:14;3.92;;;0.82;;
17763;SDS011;22245;52.832;13.816;2022-09-17T17:11:36;3.40;;;0.80;;
17763;SDS011;22245;52.832;13.816;2022-09-17T17:14:57;0.90;;;0.55;;
17763;SDS011;22245;52.832;13.816;2022-09-17T17:18:20;3.65;;;0.88;;
17763;SDS011;22245;52.832;13.816;2022-09-17T17:21:42;2.78;;;0.85;;
17763;SDS011;22245;52.832;13.816;2022-09-17T17:25:08;2.25;;;0.60;;
17763;SDS011;22245;52.832;13.816;2022-09-17T17:28:30;1.92;;;0.73;;
17763;SDS011;22245;52.832;13.816;2022-09-17T17:31:52;2.92;;;0.80;;
17763;SDS011;22245;52.832;13.816;2022-09-17T17:35:14;3.42;;;1.00;;
17763;SDS011;22245;52.832;13.816;2022-09-17T17:38:35;2.22;;;0.95;;
17763;SDS011;22245;52.832;13.816;2022-09-17T17:41:59;4.13;;;0.98;;
17763;SDS011;22245;52.832;13.816;2022-09-17T17:45:20;1.92;;;0.90;;
17763;SDS011;22245;52.832;13.816;2022-09-17T17:48:41;4.05;;;1.30;;
17763;SDS011;22245;52.832;13.816;2022-09-17T17:52:03;2.38;;;1.02;;
17763;SDS011;22245;52.832;13.816;2022-09-17T17:55:25;3.67;;;1.35;;
17763;SDS011;22245;52.832;13.816;2022-09-17T17:58:47;5.75;;;2.38;;
17763;SDS011;22245;52.832;13.816;2022-09-17T18:02:15;3.72;;;1.10;;
17763;SDS011;22245;52.832;13.816;2022-09-17T18:05:37;3.90;;;1.00;;
17763;SDS011;22245;52.832;13.816;2022-09-17T18:08:59;2.25;;;0.98;;
17763;SDS011;22245;52.832;13.816;2022-09-17T18:12:21;2.92;;;1.25;;
17763;SDS011;22245;52.832;13.816;2022-09-17T18:15:51;4.20;;;1.00;;
17763;SDS011;22245;52.832;13.816;2022-09-17T18:19:14;2.17;;;0.80;;
17763;SDS011;22245;52.832;13.816;2022-09-17T18:22:35;1.73;;;0.73;;
17763;SDS011;22245;52.832;13.816;2022-09-17T18:25:57;2.25;;;0.88;;
17763;SDS011;22245;52.832;13.816;2022-09-17T18:29:20;3.22;;;1.10;;
17763;SDS011;22245;52.832;13.816;2022-09-17T18:32:42;2.58;;;0.82;;
17763;SDS011;22245;52.832;13.816;2022-09-17T18:36:08;1.88;;;1.02;;
17763;SDS011;22245;52.832;13.816;2022-09-17T18:39:29;1.98;;;0.90;;
17763;SDS011;22245;52.832;13.816;2022-09-17T18:43:10;2.95;;;0.90;;
17763;SDS011;22245;52.832;13.816;2022-09-17T18:46:32;1.75;;;0.80;;
17763;SDS011;22245;52.832;13.816;2022-09-17T18:49:56;1.50;;;0.80;;
17763;SDS011;22245;52.832;13.816;2022-09-17T18:53:17;2.97;;;1.08;;
17763;SDS011;22245;52.832;13.816;2022-09-17T18:56:38;3.00;;;1.13;;
17763;SDS011;22245;52.832;13.816;2022-09-17T19:00:01;2.63;;;0.98;;
17763;SDS011;22245;52.832;13.816;2022-09-17T19:03:25;4.18;;;1.48;;
17763;SDS011;22245;52.832;13.816;2022-09-17T19:06:47;2.85;;;1.08;;
17763;SDS011;22245;52.832;13.816;2022-09-17T19:10:09;4.63;;;1.20;;
17763;SDS011;22245;52.832;13.816;2022-09-17T19:13:31;3.17;;;1.20;;
17763;SDS011;22245;52.832;13.816;2022-09-17T19:16:54;3.03;;;1.23;;
17763;SDS011;22245;52.832;13.816;2022-09-17T19:20:16;2.78;;;1.15;;
17763;SDS011;22245;52.832;13.816;2022-09-17T19:23:40;5.43;;;1.58;;
17763;SDS011;22245;52.832;13.816;2022-09-17T19:27:03;2.97;;;1.20;;
17763;SDS011;22245;52.832;13.816;2022-09-17T19:30:26;2.83;;;1.05;;
17763;SDS011;22245;52.832;13.816;2022-09-17T19:33:49;2.30;;;1.10;;
17763;SDS011;22245;52.832;13.816;2022-09-17T19:37:11;4.55;;;1.10;;
17763;SDS011;22245;52.832;13.816;2022-09-17T19:40:34;3.33;;;1.02;;
17763;SDS011;22245;52.832;13.816;2022-09-17T19:43:55;3.58;;;1.10;;
17763;SDS011;22245;52.832;13.816;2022-09-17T19:47:17;3.72;;;1.02;;
17763;SDS011;22245;52.832;13.816;2022-09-17T19:50:48;2.72;;;1.42;;
17763;SDS011;22245;52.832;13.816;2022-09-17T19:54:10;4.68;;;1.48;;
17763;SDS011;22245;52.832;13.816;2022-09-17T19:57:33;4.18;;;1.27;;
17763;SDS011;22245;52.832;13.816;2022-09-17T20:00:56;13.50;;;5.93;;
17763;SDS011;22245;52.832;13.816;2022-09-17T20:04:18;5.47;;;1.83;;
17763;SDS011;22245;52.832;13.816;2022-09-17T20:07:40;3.47;;;1.20;;
17763;SDS011;22245;52.832;13.816;2022-09-17T20:11:05;3.03;;;0.88;;
17763;SDS011;22245;52.832;13.816;2022-09-17T20:14:28;3.13;;;1.02;;
17763;SDS011;22245;52.832;13.816;2022-09-17T20:17:51;4.78;;;1.30;;
17763;SDS011;22245;52.832;13.816;2022-09-17T20:21:13;5.43;;;2.10;;
17763;SDS011;22245;52.832;13.816;2022-09-17T20:24:36;4.40;;;1.60;;
17763;SDS011;22245;52.832;13.816;2022-09-17T20:27:57;6.68;;;2.30;;
17763;SDS011;22245;52.832;13.816;2022-09-17T20:31:21;13.05;;;5.35;;
17763;SDS011;22245;52.832;13.816;2022-09-17T20:34:44;4.72;;;1.88;;
17763;SDS011;22245;52.832;13.816;2022-09-17T20:38:06;6.32;;;2.95;;
17763;SDS011;22245;52.832;13.816;2022-09-17T20:41:47;3.90;;;1.30;;
17763;SDS011;22245;52.832;13.816;2022-09-17T20:45:09;6.45;;;2.13;;
17763;SDS011;22245;52.832;13.816;2022-09-17T20:48:32;4.97;;;1.48;;
17763;SDS011;22245;52.832;13.816;2022-09-17T20:51:54;1.88;;;1.20;;
17763;SDS011;22245;52.832;13.816;2022-09-17T20:55:16;6.10;;;1.30;;
17763;SDS011;22245;52.832;13.816;2022-09-17T20:58:38;2.67;;;1.13;;